Time;durP1;ratioP1;P1;durP2;ratioP2;P2;SDS_P1;SDS_P2;PMS_P1;PMS_P2;Temp;Humidity;BMP_temperature;BMP_pressure;BME280_temperature;BME280_humidity;BME280_pressure;Samples;Min_cycle;Max_cycle;Signal;HPM_P1;HPM_P2
2023/09/07 00:01:09;;;;;;;5.80;5.30;;;;;;;;;;5092229;28;20665;-66
2023/09/07 00:03:40;;;;;;;11.23;5.20;;;;;;;;;;5087862;28;20931;-66
2023/09/07 00:06:08;;;;;;;6.37;5.07;;;;;;;;;;5071066;28;20630;-66
2023/09/07 00:08:37;;;;;;;5.57;5.10;;;;;;;;;;5070994;28;20658;-66
2023/09/07 00:11:05;;;;;;;7.10;4.97;;;;;;;;;;5076768;28;20619;-66
2023/09/07 00:13:35;;;;;;;9.60;5.37;;;;;;;;;;5091426;28;21183;-66
2023/09/07 00:16:04;;;;;;;8.77;5.63;;;;;;;;;;5090696;28;20612;-66
2023/09/07 00:18:32;;;;;;;7.00;5.97;;;;;;;;;;5091777;28;20666;-66
2023/09/07 00:21:00;;;;;;;9.30;5.60;;;;;;;;;;5091200;28;20942;-66
2023/09/07 00:23:28;;;;;;;5.97;5.47;;;;;;;;;;5091285;28;20617;-66
2023/09/07 00:25:57;;;;;;;6.40;5.77;;;;;;;;;;5091253;28;21001;-66
2023/09/07 00:28:25;;;;;;;5.50;4.97;;;;;;;;;;5091437;28;20653;-66
2023/09/07 00:30:55;;;;;;;5.63;5.23;;;;;;;;;;5090124;28;20623;-66
2023/09/07 00:33:24;;;;;;;5.33;4.93;;;;;;;;;;5091840;28;20652;-66
2023/09/07 00:35:52;;;;;;;5.90;5.30;;;;;;;;;;5091207;28;20609;-66
2023/09/07 00:38:20;;;;;;;9.00;5.67;;;;;;;;;;5091869;28;20789;-66
2023/09/07 00:40:48;;;;;;;8.47;5.70;;;;;;;;;;5090829;28;20609;-66
2023/09/07 00:43:17;;;;;;;6.87;6.23;;;;;;;;;;5091696;28;20982;-66
2023/09/07 00:45:45;;;;;;;7.27;5.83;;;;;;;;;;5090895;28;20617;-66
2023/09/07 00:48:17;;;;;;;7.63;6.33;;;;;;;;;;5090446;28;20629;-66
2023/09/07 00:50:46;;;;;;;7.70;5.50;;;;;;;;;;5089812;28;21023;-66
2023/09/07 00:53:14;;;;;;;8.03;5.53;;;;;;;;;;5091551;28;20605;-66
2023/09/07 00:55:42;;;;;;;5.70;5.20;;;;;;;;;;5089769;28;20601;-66
2023/09/07 00:58:12;;;;;;;5.20;4.80;;;;;;;;;;5090977;28;20978;-66
2023/09/07 01:00:42;;;;;;;6.60;5.50;;;;;;;;;;5089671;28;20948;-66
2023/09/07 01:03:10;;;;;;;6.20;5.60;;;;;;;;;;5089254;28;20642;-66
2023/09/07 01:05:44;;;;;;;5.57;5.13;;;;;;;;;;5087957;28;20632;-66
2023/09/07 01:08:17;;;;;;;5.97;5.47;;;;;;;;;;5090628;28;20663;-66
2023/09/07 01:10:45;;;;;;;5.50;5.10;;;;;;;;;;5091641;28;21934;-66
2023/09/07 01:13:13;;;;;;;6.60;6.00;;;;;;;;;;5093986;28;20689;-66
2023/09/07 01:15:41;;;;;;;6.70;6.17;;;;;;;;;;5089164;28;20640;-66
2023/09/07 01:18:17;;;;;;;5.50;5.07;;;;;;;;;;5089622;28;20615;-66
2023/09/07 01:20:48;;;;;;;5.60;5.17;;;;;;;;;;5093111;28;20987;-66
2023/09/07 01:23:18;;;;;;;6.40;5.80;;;;;;;;;;5095258;28;20619;-66
2023/09/07 01:25:46;;;;;;;6.03;5.30;;;;;;;;;;5094915;28;20629;-66
2023/09/07 01:28:15;;;;;;;5.80;5.27;;;;;;;;;;5094372;28;20667;-66
2023/09/07 01:30:44;;;;;;;6.77;6.23;;;;;;;;;;5094060;28;20667;-66
2023/09/07 01:33:12;;;;;;;6.50;5.77;;;;;;;;;;5094107;28;20648;-66
2023/09/07 01:35:41;;;;;;;6.20;5.60;;;;;;;;;;5095034;28;20662;-66
2023/09/07 01:38:09;;;;;;;5.93;5.50;;;;;;;;;;5092980;28;21200;-66
2023/09/07 01:40:39;;;;;;;10.67;5.97;;;;;;;;;;5094591;28;20624;-66
2023/09/07 01:43:07;;;;;;;10.57;5.57;;;;;;;;;;5093847;28;20625;-66
2023/09/07 01:45:35;;;;;;;6.47;5.97;;;;;;;;;;5094024;28;21206;-66
2023/09/07 01:48:04;;;;;;;6.63;5.67;;;;;;;;;;5092572;28;20584;-66
2023/09/07 01:50:34;;;;;;;10.00;6.40;;;;;;;;;;5093618;28;20947;-66
2023/09/07 01:53:03;;;;;;;6.37;5.87;;;;;;;;;;5093994;28;20620;-66
2023/09/07 01:55:31;;;;;;;8.93;6.23;;;;;;;;;;5094247;28;20619;-66
2023/09/07 01:58:02;;;;;;;8.63;6.20;;;;;;;;;;5094071;28;20605;-66
2023/09/07 02:00:31;;;;;;;6.13;5.50;;;;;;;;;;5109378;28;20624;-66
2023/09/07 02:02:59;;;;;;;6.63;5.93;;;;;;;;;;5092866;28;20959;-66
2023/09/07 02:05:27;;;;;;;6.40;5.87;;;;;;;;;;5082602;28;21221;-66
2023/09/07 02:07:56;;;;;;;6.27;5.80;;;;;;;;;;5081466;28;20946;-66
2023/09/07 02:10:24;;;;;;;5.80;5.23;;;;;;;;;;5092387;28;20629;-66
2023/09/07 02:12:52;;;;;;;6.50;5.90;;;;;;;;;;5079191;28;20675;-66
2023/09/07 02:15:22;;;;;;;6.80;6.20;;;;;;;;;;5094457;28;20617;-66
2023/09/07 02:17:50;;;;;;;6.60;6.10;;;;;;;;;;5094131;28;20611;-66
2023/09/07 02:20:23;;;;;;;6.30;5.77;;;;;;;;;;5093350;28;20597;-65
2023/09/07 02:22:51;;;;;;;7.90;6.60;;;;;;;;;;5092565;28;20624;-65
2023/09/07 02:25:20;;;;;;;7.07;6.23;;;;;;;;;;5092880;28;20684;-65
2023/09/07 02:27:48;;;;;;;6.70;6.10;;;;;;;;;;5094131;28;20623;-65
2023/09/07 02:30:17;;;;;;;7.33;6.60;;;;;;;;;;5094021;28;20732;-65
2023/09/07 02:32:46;;;;;;;7.23;5.90;;;;;;;;;;5092740;28;21059;-65
2023/09/07 02:35:14;;;;;;;6.87;6.17;;;;;;;;;;5084967;28;20672;-65
2023/09/07 02:37:43;;;;;;;6.57;6.00;;;;;;;;;;5092621;28;20621;-65
2023/09/07 02:40:11;;;;;;;10.00;6.40;;;;;;;;;;5091380;28;20617;-65
2023/09/07 02:42:40;;;;;;;6.07;5.47;;;;;;;;;;5093362;28;21212;-65
2023/09/07 02:45:08;;;;;;;6.17;5.60;;;;;;;;;;5092586;28;20633;-65
2023/09/07 02:47:37;;;;;;;6.73;5.50;;;;;;;;;;5092224;28;20621;-65
2023/09/07 02:50:07;;;;;;;5.80;5.20;;;;;;;;;;5093423;28;20653;-65
2023/09/07 02:52:35;;;;;;;8.10;5.30;;;;;;;;;;5091917;28;20639;-65
2023/09/07 02:55:04;;;;;;;5.90;5.50;;;;;;;;;;5091100;28;20697;-65
2023/09/07 02:57:32;;;;;;;6.53;6.03;;;;;;;;;;5092259;28;20613;-65
2023/09/07 03:00:01;;;;;;;9.70;5.20;;;;;;;;;;5093276;28;20621;-65
2023/09/07 03:02:30;;;;;;;6.23;5.50;;;;;;;;;;5090858;28;20635;-65
2023/09/07 03:04:58;;;;;;;5.37;4.97;;;;;;;;;;5090153;28;21256;-65
2023/09/07 03:07:28;;;;;;;6.30;5.70;;;;;;;;;;5091079;28;20625;-65
2023/09/07 03:09:56;;;;;;;5.60;5.10;;;;;;;;;;5092329;28;21236;-65
2023/09/07 03:12:25;;;;;;;6.07;5.60;;;;;;;;;;5093708;28;20713;-65
2023/09/07 03:14:54;;;;;;;10.77;6.10;;;;;;;;;;5092403;28;20609;-65
2023/09/07 03:17:22;;;;;;;7.27;5.57;;;;;;;;;;5079189;28;20622;-65
2023/09/07 03:19:51;;;;;;;6.87;6.37;;;;;;;;;;5088222;28;20607;-65
2023/09/07 03:22:19;;;;;;;6.07;5.57;;;;;;;;;;5091238;28;20606;-66
2023/09/07 03:24:50;;;;;;;6.27;5.67;;;;;;;;;;5091526;28;20954;-66
2023/09/07 03:27:20;;;;;;;6.33;5.43;;;;;;;;;;5091526;28;20685;-66
2023/09/07 03:29:52;;;;;;;5.70;5.20;;;;;;;;;;5091363;28;21027;-66
2023/09/07 03:32:22;;;;;;;6.03;5.63;;;;;;;;;;5092125;28;20602;-66
2023/09/07 03:34:50;;;;;;;8.37;5.37;;;;;;;;;;5090630;28;20694;-66
2023/09/07 03:37:18;;;;;;;6.03;5.53;;;;;;;;;;5093004;28;20698;-66
2023/09/07 03:39:46;;;;;;;5.77;5.23;;;;;;;;;;5091985;28;20629;-66
2023/09/07 03:42:16;;;;;;;6.10;5.60;;;;;;;;;;5091570;28;20624;-66
2023/09/07 03:44:44;;;;;;;6.37;5.87;;;;;;;;;;5086829;28;20671;-66
2023/09/07 03:47:13;;;;;;;5.47;4.97;;;;;;;;;;5072812;28;20618;-66
2023/09/07 03:49:42;;;;;;;6.20;5.70;;;;;;;;;;5072961;28;20649;-66
2023/09/07 03:52:11;;;;;;;7.03;5.33;;;;;;;;;;5091285;28;20997;-66
2023/09/07 03:54:39;;;;;;;7.33;5.40;;;;;;;;;;5091781;28;21159;-66
2023/09/07 03:57:07;;;;;;;6.53;5.40;;;;;;;;;;5077076;28;20618;-66
2023/09/07 03:59:37;;;;;;;5.50;5.10;;;;;;;;;;5070229;28;20629;-66
2023/09/07 04:02:06;;;;;;;6.10;5.60;;;;;;;;;;5070403;28;20679;-66
2023/09/07 04:04:34;;;;;;;7.80;5.33;;;;;;;;;;5073365;28;20656;-66
2023/09/07 04:07:03;;;;;;;9.20;5.37;;;;;;;;;;5071936;28;20926;-66
2023/09/07 04:09:31;;;;;;;10.83;6.60;;;;;;;;;;5087539;28;20656;-66
2023/09/07 04:12:00;;;;;;;6.83;6.23;;;;;;;;;;5092386;28;21135;-65
2023/09/07 04:14:30;;;;;;;9.53;6.20;;;;;;;;;;5084957;28;20615;-65
2023/09/07 04:17:00;;;;;;;8.30;5.30;;;;;;;;;;5071048;28;20667;-65
2023/09/07 04:19:28;;;;;;;6.90;5.67;;;;;;;;;;5081771;28;20632;-65
2023/09/07 04:21:56;;;;;;;7.17;5.67;;;;;;;;;;5091679;28;20996;-65
2023/09/07 04:24:24;;;;;;;6.97;6.20;;;;;;;;;;5091250;28;20624;-65
2023/09/07 04:26:53;;;;;;;7.80;6.13;;;;;;;;;;5092378;28;20602;-66
2023/09/07 04:29:21;;;;;;;6.90;5.13;;;;;;;;;;5091559;28;20665;-64
2023/09/07 04:31:50;;;;;;;6.70;5.93;;;;;;;;;;5090909;28;20602;-65
2023/09/07 04:34:20;;;;;;;9.13;6.17;;;;;;;;;;5091009;28;20628;-65
2023/09/07 04:36:48;;;;;;;6.63;6.03;;;;;;;;;;5090264;28;21049;-65
2023/09/07 04:39:17;;;;;;;7.53;6.30;;;;;;;;;;5089878;28;20620;-65
2023/09/07 04:41:46;;;;;;;5.50;5.00;;;;;;;;;;5070486;28;20622;-65
2023/09/07 04:44:15;;;;;;;8.70;6.27;;;;;;;;;;5069911;28;20615;-65
2023/09/07 04:46:44;;;;;;;11.63;6.07;;;;;;;;;;5069189;28;21157;-65
2023/09/07 04:49:13;;;;;;;6.73;6.13;;;;;;;;;;5070033;28;20610;-65
2023/09/07 04:51:43;;;;;;;7.63;5.90;;;;;;;;;;5086339;28;20626;-65
2023/09/07 04:54:12;;;;;;;10.10;6.40;;;;;;;;;;5073464;28;20610;-65
2023/09/07 04:56:40;;;;;;;7.20;6.50;;;;;;;;;;5090215;28;20621;-65
2023/09/07 04:59:09;;;;;;;8.07;6.87;;;;;;;;;;5090872;28;20962;-65
2023/09/07 05:01:37;;;;;;;8.87;6.60;;;;;;;;;;5076441;28;20607;-65
2023/09/07 05:04:05;;;;;;;7.07;6.37;;;;;;;;;;5088621;28;21269;-65
2023/09/07 05:06:36;;;;;;;6.60;6.10;;;;;;;;;;5082612;28;20638;-65
2023/09/07 05:09:07;;;;;;;8.00;6.37;;;;;;;;;;5095422;28;20609;-65
2023/09/07 05:11:35;;;;;;;6.40;5.80;;;;;;;;;;5095801;28;20632;-64
2023/09/07 05:14:04;;;;;;;6.60;6.00;;;;;;;;;;5100135;28;21204;-65
2023/09/07 05:16:32;;;;;;;7.50;6.60;;;;;;;;;;5091891;28;20654;-65
2023/09/07 05:19:01;;;;;;;7.23;6.53;;;;;;;;;;5088922;28;20659;-65
2023/09/07 05:21:29;;;;;;;7.73;6.80;;;;;;;;;;5097480;28;20592;-65
2023/09/07 05:23:57;;;;;;;6.27;5.70;;;;;;;;;;5093320;28;20625;-65
2023/09/07 05:26:28;;;;;;;7.50;6.03;;;;;;;;;;5090560;28;20613;-65
2023/09/07 05:28:57;;;;;;;6.30;5.80;;;;;;;;;;5089513;28;20611;-65
2023/09/07 05:31:25;;;;;;;6.40;5.90;;;;;;;;;;5090375;28;20638;-65
2023/09/07 05:33:53;;;;;;;7.43;6.60;;;;;;;;;;5089619;28;20649;-65
2023/09/07 05:36:21;;;;;;;7.90;7.20;;;;;;;;;;5089435;28;21401;-66
2023/09/07 05:38:50;;;;;;;6.23;5.63;;;;;;;;;;5092919;28;20629;-67
2023/09/07 05:41:18;;;;;;;7.50;6.80;;;;;;;;;;5100600;28;21384;-67
2023/09/07 05:43:49;;;;;;;7.40;6.70;;;;;;;;;;5087724;28;20960;-67
2023/09/07 05:46:17;;;;;;;8.80;6.23;;;;;;;;;;5093266;28;20605;-68
2023/09/07 05:48:45;;;;;;;6.73;6.03;;;;;;;;;;5088867;28;20606;-68
2023/09/07 05:51:13;;;;;;;6.23;5.73;;;;;;;;;;5089851;28;21015;-68
2023/09/07 05:53:42;;;;;;;7.07;6.47;;;;;;;;;;5108999;28;20989;-68
2023/09/07 05:56:10;;;;;;;8.93;6.27;;;;;;;;;;5070178;28;20624;-68
2023/09/07 05:58:38;;;;;;;6.20;5.60;;;;;;;;;;5088299;28;21168;-68
2023/09/07 06:01:08;;;;;;;10.60;6.37;;;;;;;;;;5089530;28;20602;-67
2023/09/07 06:03:36;;;;;;;6.70;6.10;;;;;;;;;;5071880;28;20641;-67
2023/09/07 06:06:04;;;;;;;8.10;5.70;;;;;;;;;;5080267;28;20620;-67
2023/09/07 06:08:32;;;;;;;6.97;6.17;;;;;;;;;;5093020;28;20588;-66
2023/09/07 06:11:00;;;;;;;6.90;6.03;;;;;;;;;;5093105;28;20657;-66
2023/09/07 06:13:29;;;;;;;7.47;5.50;;;;;;;;;;5091273;28;20588;-67
2023/09/07 06:15:58;;;;;;;6.90;6.40;;;;;;;;;;5090864;28;20629;-66
2023/09/07 06:18:28;;;;;;;6.43;5.83;;;;;;;;;;5091537;28;20637;-66
2023/09/07 06:20:57;;;;;;;8.30;6.23;;;;;;;;;;5085706;28;21223;-67
2023/09/07 06:23:25;;;;;;;7.17;6.07;;;;;;;;;;5092461;28;20631;-67
2023/09/07 06:25:53;;;;;;;7.77;6.10;;;;;;;;;;5092175;28;20602;-67
2023/09/07 06:28:22;;;;;;;5.57;5.10;;;;;;;;;;5091445;28;21255;-67
2023/09/07 06:30:50;;;;;;;8.87;5.43;;;;;;;;;;5092334;28;20657;-67
2023/09/07 06:33:20;;;;;;;7.77;5.70;;;;;;;;;;5090925;28;20645;-67
2023/09/07 06:35:50;;;;;;;10.17;6.40;;;;;;;;;;5091833;28;20605;-67
2023/09/07 06:38:18;;;;;;;6.30;5.80;;;;;;;;;;5092510;28;20625;-67
2023/09/07 06:40:49;;;;;;;7.53;5.60;;;;;;;;;;5092959;28;20613;-67
2023/09/07 06:43:19;;;;;;;7.70;5.70;;;;;;;;;;5090853;28;20576;-69
2023/09/07 06:45:47;;;;;;;7.13;6.27;;;;;;;;;;5090190;28;20633;-68
2023/09/07 06:48:17;;;;;;;6.30;5.67;;;;;;;;;;5091382;28;20628;-69
2023/09/07 06:50:45;;;;;;;8.43;5.80;;;;;;;;;;5091228;28;21038;-67
2023/09/07 06:53:15;;;;;;;6.07;5.53;;;;;;;;;;5091481;28;20625;-68
2023/09/07 06:55:43;;;;;;;6.80;5.70;;;;;;;;;;5092455;28;21029;-68
2023/09/07 06:58:11;;;;;;;6.20;5.60;;;;;;;;;;5091099;28;20624;-69
2023/09/07 07:00:40;;;;;;;6.63;4.73;;;;;;;;;;5090879;28;20622;-69
2023/09/07 07:03:08;;;;;;;5.87;5.43;;;;;;;;;;5075100;28;20638;-69
2023/09/07 07:05:37;;;;;;;6.43;5.27;;;;;;;;;;5087725;28;20713;-69
2023/09/07 07:08:05;;;;;;;5.80;5.30;;;;;;;;;;5091117;28;21221;-69
2023/09/07 07:10:35;;;;;;;5.20;4.80;;;;;;;;;;5090447;28;20678;-69
2023/09/07 07:13:03;;;;;;;9.20;5.60;;;;;;;;;;5091669;28;20625;-69
2023/09/07 07:15:32;;;;;;;6.47;5.63;;;;;;;;;;5087521;28;21131;-68
2023/09/07 07:18:00;;;;;;;7.10;4.87;;;;;;;;;;5084162;28;20621;-68
2023/09/07 07:20:28;;;;;;;6.23;5.73;;;;;;;;;;5085684;28;20625;-68
2023/09/07 07:22:57;;;;;;;5.53;5.03;;;;;;;;;;5091408;28;20629;-68
2023/09/07 07:25:25;;;;;;;5.40;5.00;;;;;;;;;;5092219;28;20625;-68
2023/09/07 07:27:54;;;;;;;5.40;4.97;;;;;;;;;;5091547;28;20635;-70
2023/09/07 07:30:23;;;;;;;5.40;5.00;;;;;;;;;;5091421;28;20634;-71
2023/09/07 07:32:51;;;;;;;5.47;5.07;;;;;;;;;;5091181;28;21241;-69
2023/09/07 07:35:20;;;;;;;6.83;5.77;;;;;;;;;;5090865;28;20625;-69
2023/09/07 07:37:48;;;;;;;5.83;4.93;;;;;;;;;;5090984;28;20625;-70
2023/09/07 07:40:17;;;;;;;5.07;4.70;;;;;;;;;;5090123;28;21004;-69
2023/09/07 07:42:46;;;;;;;8.90;5.40;;;;;;;;;;5089584;28;20616;-68
2023/09/07 07:45:19;;;;;;;5.07;4.70;;;;;;;;;;5089475;28;20629;-69
2023/09/07 07:47:48;;;;;;;8.57;5.53;;;;;;;;;;5090152;28;20605;-70
2023/09/07 07:50:17;;;;;;;5.80;5.07;;;;;;;;;;5091301;28;20663;-69
2023/09/07 07:52:47;;;;;;;5.13;4.83;;;;;;;;;;5090720;28;20653;-70
2023/09/07 07:55:15;;;;;;;7.73;6.93;;;;;;;;;;5089678;28;20686;-68
2023/09/07 07:57:44;;;;;;;6.37;5.77;;;;;;;;;;5090534;28;21187;-69
2023/09/07 08:00:14;;;;;;;8.80;5.20;;;;;;;;;;5087556;28;20621;-69
2023/09/07 08:02:46;;;;;;;5.97;5.57;;;;;;;;;;5086636;28;21054;-69
2023/09/07 08:05:17;;;;;;;6.97;5.57;;;;;;;;;;5089844;28;20713;-69
2023/09/07 08:07:45;;;;;;;5.70;5.30;;;;;;;;;;5089380;28;20667;-70
2023/09/07 08:10:14;;;;;;;6.03;5.13;;;;;;;;;;5073876;28;20609;-72
2023/09/07 08:12:44;;;;;;;6.07;5.47;;;;;;;;;;5090955;28;20649;-70
2023/09/07 08:15:14;;;;;;;5.67;5.27;;;;;;;;;;5089342;28;20601;-69
2023/09/07 08:17:44;;;;;;;7.00;5.63;;;;;;;;;;5090052;28;21256;-68
2023/09/07 08:20:15;;;;;;;5.83;5.43;;;;;;;;;;5087948;28;20633;-68
2023/09/07 08:22:44;;;;;;;7.20;5.80;;;;;;;;;;5089736;28;20641;-68
2023/09/07 08:25:14;;;;;;;5.87;5.33;;;;;;;;;;5089973;28;20609;-70
2023/09/07 08:27:44;;;;;;;6.93;6.37;;;;;;;;;;5089992;28;20675;-69
2023/09/07 08:30:12;;;;;;;6.17;5.67;;;;;;;;;;5090003;28;21191;-69
2023/09/07 08:32:41;;;;;;;6.20;5.60;;;;;;;;;;5090333;28;20645;-68
2023/09/07 08:35:12;;;;;;;6.10;5.50;;;;;;;;;;5089602;28;20701;-69
2023/09/07 08:37:42;;;;;;;7.10;6.70;;;;;;;;;;5079706;28;20622;-70
2023/09/07 08:40:16;;;;;;;7.03;5.83;;;;;;;;;;5088896;28;20621;-70
2023/09/07 08:42:45;;;;;;;5.50;5.10;;;;;;;;;;5091329;28;20638;-69
2023/09/07 08:45:15;;;;;;;7.37;6.23;;;;;;;;;;5088755;28;20602;-69
2023/09/07 08:47:44;;;;;;;6.50;5.90;;;;;;;;;;5086390;28;21237;-69
2023/09/07 08:50:13;;;;;;;10.67;7.60;;;;;;;;;;5090929;28;20627;-68
2023/09/07 08:52:45;;;;;;;6.57;6.03;;;;;;;;;;5090874;28;20653;-69
2023/09/07 08:55:14;;;;;;;12.03;6.27;;;;;;;;;;5089905;28;21211;-69
2023/09/07 08:57:42;;;;;;;6.73;6.20;;;;;;;;;;5083920;28;20636;-68
2023/09/07 09:00:16;;;;;;;6.30;5.93;;;;;;;;;;5086879;28;21190;-70
2023/09/07 09:02:44;;;;;;;10.37;6.40;;;;;;;;;;5089887;28;20598;-69
2023/09/07 09:05:14;;;;;;;7.53;6.10;;;;;;;;;;5089096;28;21053;-69
2023/09/07 09:07:43;;;;;;;7.10;6.50;;;;;;;;;;5089807;28;20633;-69
2023/09/07 09:10:12;;;;;;;7.30;6.63;;;;;;;;;;5091822;28;20629;-71
2023/09/07 09:12:46;;;;;;;6.83;6.23;;;;;;;;;;5089008;28;20661;-70
2023/09/07 09:15:15;;;;;;;8.70;6.47;;;;;;;;;;5090389;28;20609;-70
2023/09/07 09:17:43;;;;;;;7.07;6.57;;;;;;;;;;5089768;28;20629;-67
2023/09/07 09:20:22;;;;;;;9.17;8.27;;;;;;;;;;5085677;28;20797;-67
2023/09/07 09:22:53;;;;;;;7.17;6.50;;;;;;;;;;5089804;28;20616;-66
2023/09/07 09:25:21;;;;;;;6.83;6.30;;;;;;;;;;5088707;28;20597;-68
2023/09/07 09:27:50;;;;;;;7.20;6.70;;;;;;;;;;5089238;28;20633;-68
2023/09/07 09:30:18;;;;;;;7.77;7.17;;;;;;;;;;5090138;28;20617;-67
2023/09/07 09:32:46;;;;;;;9.00;7.10;;;;;;;;;;5091757;28;20666;-68
2023/09/07 09:35:17;;;;;;;7.80;7.27;;;;;;;;;;5094823;28;20643;-66
2023/09/07 09:37:46;;;;;;;12.63;11.43;;;;;;;;;;5092492;28;20628;-67
2023/09/07 09:40:17;;;;;;;7.87;7.30;;;;;;;;;;5094486;28;20643;-67
2023/09/07 09:42:45;;;;;;;7.77;6.83;;;;;;;;;;5093850;28;20584;-67
2023/09/07 09:45:14;;;;;;;9.20;8.60;;;;;;;;;;5094691;28;20631;-67
2023/09/07 09:47:43;;;;;;;9.30;7.83;;;;;;;;;;5093527;28;20621;-66
2023/09/07 09:50:12;;;;;;;12.23;7.30;;;;;;;;;;5093924;28;20621;-66
2023/09/07 09:52:40;;;;;;;8.40;7.80;;;;;;;;;;5072147;28;20657;-67
2023/09/07 09:55:12;;;;;;;8.10;7.30;;;;;;;;;;5082770;28;20723;-67
2023/09/07 09:57:42;;;;;;;7.50;6.90;;;;;;;;;;5093161;28;20609;-66
2023/09/07 10:00:21;;;;;;;8.87;8.27;;;;;;;;;;5093714;28;20682;-66
2023/09/07 10:02:52;;;;;;;7.93;7.20;;;;;;;;;;5091605;28;20601;-66
2023/09/07 10:05:20;;;;;;;8.53;7.83;;;;;;;;;;5087950;28;20661;-66
2023/09/07 10:07:50;;;;;;;8.00;7.50;;;;;;;;;;5088255;28;20629;-66
2023/09/07 10:10:20;;;;;;;8.23;7.57;;;;;;;;;;5093917;28;20947;-67
2023/09/07 10:12:54;;;;;;;7.90;7.30;;;;;;;;;;5093424;28;21195;-66
2023/09/07 10:15:23;;;;;;;8.40;7.80;;;;;;;;;;5094074;28;20626;-66
2023/09/07 10:17:52;;;;;;;8.13;7.33;;;;;;;;;;5093886;28;20629;-67
2023/09/07 10:20:24;;;;;;;8.40;7.60;;;;;;;;;;5093747;28;20666;-67
2023/09/07 10:23:03;;;;;;;8.07;7.57;;;;;;;;;;5093761;28;21024;-66
2023/09/07 10:25:32;;;;;;;8.80;8.10;;;;;;;;;;5093636;28;20609;-67
2023/09/07 10:28:02;;;;;;;7.93;7.43;;;;;;;;;;5093083;28;20673;-66
2023/09/07 10:30:32;;;;;;;9.07;8.17;;;;;;;;;;5092017;28;20958;-67
2023/09/07 10:33:00;;;;;;;8.07;7.57;;;;;;;;;;5092018;28;21022;-66
2023/09/07 10:35:29;;;;;;;8.87;7.97;;;;;;;;;;5092522;28;20609;-67
2023/09/07 10:37:58;;;;;;;8.97;8.27;;;;;;;;;;5093503;28;21039;-66
2023/09/07 10:40:26;;;;;;;8.83;7.93;;;;;;;;;;5091803;28;20617;-66
2023/09/07 10:43:04;;;;;;;7.70;7.20;;;;;;;;;;5092734;28;20637;-66
2023/09/07 10:45:33;;;;;;;8.30;7.70;;;;;;;;;;5088454;28;20613;-66
2023/09/07 10:48:01;;;;;;;15.57;8.83;;;;;;;;;;5088481;28;20618;-67
2023/09/07 10:50:31;;;;;;;8.40;7.80;;;;;;;;;;5091497;28;20613;-66
2023/09/07 10:52:59;;;;;;;8.50;7.67;;;;;;;;;;5091734;28;20657;-66
2023/09/07 10:55:27;;;;;;;8.80;8.00;;;;;;;;;;5091610;28;20632;-67
2023/09/07 10:57:58;;;;;;;8.60;8.10;;;;;;;;;;5091574;28;20640;-67
2023/09/07 11:00:28;;;;;;;8.90;8.20;;;;;;;;;;5091670;28;20962;-67
2023/09/07 11:02:56;;;;;;;10.17;8.30;;;;;;;;;;5091952;28;20598;-66
2023/09/07 11:05:26;;;;;;;9.07;8.47;;;;;;;;;;5086049;28;21014;-67
2023/09/07 11:08:00;;;;;;;10.47;9.20;;;;;;;;;;5092454;28;20708;-67
2023/09/07 11:10:29;;;;;;;10.20;9.00;;;;;;;;;;5090965;28;20601;-67
2023/09/07 11:12:57;;;;;;;9.37;8.80;;;;;;;;;;5081783;28;20653;-67
2023/09/07 11:15:25;;;;;;;10.13;9.37;;;;;;;;;;5091784;28;20624;-65
2023/09/07 11:17:55;;;;;;;10.00;8.50;;;;;;;;;;5093139;28;20618;-67
2023/09/07 11:20:23;;;;;;;10.73;9.57;;;;;;;;;;5091923;28;20613;-67
2023/09/07 11:22:52;;;;;;;10.00;9.50;;;;;;;;;;5093218;28;20609;-67
2023/09/07 11:25:21;;;;;;;11.20;10.33;;;;;;;;;;5092228;28;20609;-67
2023/09/07 11:27:49;;;;;;;11.00;10.27;;;;;;;;;;5092541;28;20651;-67
2023/09/07 11:30:17;;;;;;;10.77;9.93;;;;;;;;;;5073293;28;20618;-66
2023/09/07 11:32:46;;;;;;;11.20;10.47;;;;;;;;;;5071251;28;20730;-67
2023/09/07 11:35:16;;;;;;;10.50;9.80;;;;;;;;;;5072455;28;20649;-69
2023/09/07 11:37:44;;;;;;;9.77;9.13;;;;;;;;;;5092039;28;20621;-67
2023/09/07 11:40:12;;;;;;;10.60;10.10;;;;;;;;;;5091678;28;21050;-67
2023/09/07 11:42:41;;;;;;;10.50;9.90;;;;;;;;;;5092152;28;20619;-67
2023/09/07 11:45:09;;;;;;;12.73;11.83;;;;;;;;;;5091298;28;20613;-67
2023/09/07 11:47:38;;;;;;;11.33;10.40;;;;;;;;;;5071765;28;20618;-67
2023/09/07 11:50:07;;;;;;;11.37;10.47;;;;;;;;;;5087356;28;20617;-67
2023/09/07 11:52:37;;;;;;;11.53;10.60;;;;;;;;;;5090702;28;21016;-67
2023/09/07 11:55:05;;;;;;;10.97;10.27;;;;;;;;;;5091022;28;20694;-67
2023/09/07 11:57:33;;;;;;;10.20;9.43;;;;;;;;;;5086573;28;20676;-68
2023/09/07 12:00:01;;;;;;;11.27;10.40;;;;;;;;;;5088656;28;20625;-66
2023/09/07 12:02:40;;;;;;;10.80;10.07;;;;;;;;;;5090593;28;20650;-67
2023/09/07 12:05:09;;;;;;;10.80;10.20;;;;;;;;;;5090686;28;20644;-66
2023/09/07 12:07:38;;;;;;;10.77;9.70;;;;;;;;;;5087968;28;20639;-67
2023/09/07 12:10:10;;;;;;;10.50;9.70;;;;;;;;;;5090158;28;21183;-67
2023/09/07 12:12:38;;;;;;;10.60;9.70;;;;;;;;;;5081822;28;20609;-67
2023/09/07 12:15:07;;;;;;;11.70;10.83;;;;;;;;;;5089734;28;20632;-68
2023/09/07 12:17:35;;;;;;;10.60;10.00;;;;;;;;;;5091074;28;20635;-64
2023/09/07 12:20:05;;;;;;;10.43;9.73;;;;;;;;;;5090988;28;20630;-67
2023/09/07 12:22:35;;;;;;;10.50;9.90;;;;;;;;;;5090376;28;20617;-67
2023/09/07 12:25:07;;;;;;;12.80;11.43;;;;;;;;;;5088142;28;20628;-67
2023/09/07 12:27:36;;;;;;;10.13;9.43;;;;;;;;;;5070132;28;20642;-68
2023/09/07 12:30:08;;;;;;;10.53;9.80;;;;;;;;;;5084453;28;20716;-69
2023/09/07 12:32:36;;;;;;;10.87;10.07;;;;;;;;;;5076915;28;21184;-69
2023/09/07 12:35:08;;;;;;;10.30;9.50;;;;;;;;;;5090672;28;20661;-68
2023/09/07 12:37:37;;;;;;;10.77;9.60;;;;;;;;;;5090390;28;20996;-68
2023/09/07 12:40:11;;;;;;;10.33;9.47;;;;;;;;;;5090467;28;20635;-67
2023/09/07 12:42:40;;;;;;;10.83;10.23;;;;;;;;;;5090441;28;20963;-69
2023/09/07 12:45:10;;;;;;;10.40;9.83;;;;;;;;;;5089870;28;20623;-66
2023/09/07 12:47:39;;;;;;;11.80;10.77;;;;;;;;;;5083295;28;20633;-68
2023/09/07 12:50:07;;;;;;;10.70;10.10;;;;;;;;;;5088094;28;20644;-68
2023/09/07 12:52:37;;;;;;;12.43;9.87;;;;;;;;;;5089497;28;20621;-69
2023/09/07 12:55:08;;;;;;;10.60;10.00;;;;;;;;;;5088616;28;21027;-68
2023/09/07 12:57:37;;;;;;;10.93;10.30;;;;;;;;;;5089701;28;20628;-69
2023/09/07 13:00:06;;;;;;;11.13;10.07;;;;;;;;;;5089087;28;21049;-70
2023/09/07 13:02:35;;;;;;;10.20;9.17;;;;;;;;;;5087735;28;20618;-68
2023/09/07 13:05:05;;;;;;;10.30;9.70;;;;;;;;;;5089545;28;20656;-68
2023/09/07 13:07:34;;;;;;;10.40;9.77;;;;;;;;;;5088852;28;21215;-68
2023/09/07 13:10:03;;;;;;;10.63;9.47;;;;;;;;;;5089579;28;20624;-68
2023/09/07 13:12:33;;;;;;;10.40;9.80;;;;;;;;;;5089941;28;20637;-69
2023/09/07 13:15:02;;;;;;;10.33;9.83;;;;;;;;;;5088910;28;20660;-70
2023/09/07 13:17:30;;;;;;;9.90;9.40;;;;;;;;;;5086840;28;20625;-68
2023/09/07 13:20:04;;;;;;;10.53;10.00;;;;;;;;;;5072200;28;20915;-69
2023/09/07 13:22:35;;;;;;;10.40;9.90;;;;;;;;;;5089847;28;20619;-68
2023/09/07 13:25:04;;;;;;;10.83;10.07;;;;;;;;;;5090088;28;20625;-69
2023/09/07 13:27:34;;;;;;;11.20;10.13;;;;;;;;;;5088659;28;20622;-69
2023/09/07 13:30:04;;;;;;;10.40;9.70;;;;;;;;;;5090176;28;21153;-69
2023/09/07 13:32:32;;;;;;;10.60;10.00;;;;;;;;;;5089207;28;20625;-69
2023/09/07 13:35:00;;;;;;;9.80;9.30;;;;;;;;;;5087679;28;20694;-69
2023/09/07 13:37:28;;;;;;;9.80;9.30;;;;;;;;;;5086131;28;20621;-69
2023/09/07 13:39:57;;;;;;;10.50;9.90;;;;;;;;;;5089579;28;20978;-69
2023/09/07 13:42:27;;;;;;;10.00;9.40;;;;;;;;;;5090067;28;20624;-70
2023/09/07 13:44:57;;;;;;;9.97;9.50;;;;;;;;;;5089237;28;20614;-67
2023/09/07 13:47:25;;;;;;;10.73;9.90;;;;;;;;;;5089754;28;20690;-68
2023/09/07 13:49:53;;;;;;;9.90;9.50;;;;;;;;;;5090180;28;21198;-69
2023/09/07 13:52:21;;;;;;;10.43;9.93;;;;;;;;;;5089548;28;21432;-69
2023/09/07 13:54:48;;;;;;;11.23;10.50;;;;;;;;;;5089543;28;20669;-69
2023/09/07 13:57:16;;;;;;;10.40;9.80;;;;;;;;;;5088313;28;20629;-69
2023/09/07 13:59:44;;;;;;;12.70;10.30;;;;;;;;;;5090327;28;20627;-69
2023/09/07 14:02:14;;;;;;;10.23;9.63;;;;;;;;;;5088308;28;20629;-69
2023/09/07 14:04:42;;;;;;;10.60;9.93;;;;;;;;;;5088625;28;20645;-69
2023/09/07 14:07:10;;;;;;;11.60;10.70;;;;;;;;;;5088029;28;20658;-70
2023/09/07 14:09:38;;;;;;;10.37;9.77;;;;;;;;;;5087884;28;20667;-70
2023/09/07 14:12:07;;;;;;;11.30;10.37;;;;;;;;;;5089959;28;21158;-69
2023/09/07 14:14:35;;;;;;;10.23;9.73;;;;;;;;;;5090209;28;20663;-69
2023/09/07 14:17:04;;;;;;;10.93;10.23;;;;;;;;;;5089933;28;20617;-69
2023/09/07 14:19:33;;;;;;;10.17;9.67;;;;;;;;;;5091378;28;20708;-69
2023/09/07 14:22:01;;;;;;;10.70;10.10;;;;;;;;;;5091634;28;21187;-67
2023/09/07 14:24:30;;;;;;;10.00;9.50;;;;;;;;;;5091689;28;21219;-70
2023/09/07 14:26:58;;;;;;;11.00;10.27;;;;;;;;;;5093200;28;20620;-68
2023/09/07 14:29:28;;;;;;;9.93;9.27;;;;;;;;;;5092577;28;20978;-69
2023/09/07 14:31:57;;;;;;;9.83;9.20;;;;;;;;;;5092587;28;20593;-68
2023/09/07 14:34:26;;;;;;;9.90;9.20;;;;;;;;;;5091067;28;20777;-66
2023/09/07 14:36:55;;;;;;;10.03;9.43;;;;;;;;;;5088959;28;20657;-68
2023/09/07 14:39:24;;;;;;;9.63;9.10;;;;;;;;;;5092743;28;20636;-68
2023/09/07 14:41:53;;;;;;;10.40;9.60;;;;;;;;;;5092530;28;20631;-68
2023/09/07 14:44:21;;;;;;;10.37;9.67;;;;;;;;;;5093049;28;20627;-68
2023/09/07 14:46:50;;;;;;;9.73;9.13;;;;;;;;;;5092896;28;20607;-68
2023/09/07 14:49:18;;;;;;;10.53;9.47;;;;;;;;;;5092779;28;21183;-68